Walter J Mccarthy Jr — WXU3434 — position and weather

sailwx.info

Track history (hours):
 
Tides and Currents Weather Stations Pressure Air Temp Water Temp Dewpoint Dewpoint Depression Visibility Wind Speed Wind Dir Waves Ship Positions

Walter J Mccarthy Jr

Owner: ARMSTRONG STEAMSHIP CO, WILLIAMSVILLE, NY. More information available from US FCC via Universal Licensing System and Coast Guard Vessel Documentation Center.

Last reported at 2017-Dec-11 08:10 UTC. Time now 2017-Dec-12 14:22 UTC.
Position N 45°44' W 083°43'.

Length 304 m; draft 8.5 m.

Type: Cargo ship. MMSI: 366906610.

Date/timePositionNaut miles runAvg speedWind from/ knotsBaromVisibWave heightAir tempDewpointWater temp
2017-Dec-11 08:10N 45°44' W 083°43'212.7
2017-Dec-11 08:00N 45°42' W 083°41'612.5
2017-Dec-11 07:30N 45°37' W 083°36'612.2
2017-Dec-11 07:00N 45°32' W 083°31'612.0
2017-Dec-11 06:30N 45°27' W 083°26'5612.3
2017-Dec-11 02:00N 44°36' W 082°54'169 3.4 320 / 251015.2 -4.4
2017-Dec-09 01:00N 41°48' W 083°12'0 0.0 210 / 181015.2 -1.1
2017-Dec-08 14:00N 41°48' W 083°12'0 0.0 230 / 221017.2 -5.5
2017-Dec-08 03:00N 41°48' W 083°12'186 5.5 240 / 23507.1 -4.4
2017-Dec-06 17:00N 44°54' W 083°06'74 6.7 240 / 291006.110.8 -5.3-12.9 3.3
2017-Dec-06 06:00N 46°00' W 083°54'0 0.0 260 / 241004.4 2.2 -1.2-13.0 4.4
2017-Dec-05 20:00N 46°00' W 083°54'0 0.0 240 / 39999.0 5.4 0.9-4.8 3.8
2017-Dec-05 17:00N 46°00' W 083°54'96 4.3 230 / 34998.3 5.4 -0.0-5.2 3.8
2017-Dec-04 19:00N 46°48' W 085°54'2110.3 140 / 171002.4 2.2 7.3 5.3 4.4
2017-Dec-04 17:00N 46°48' W 086°24'95 9.5 150 / 241003.1 2.2 5.4 4.2 4.4
2017-Dec-04 07:00N 47°30' W 088°30'1212.2 140 / 141010.8 5.4 3.0-0.0 4.4
2017-Dec-04 06:00N 47°30' W 088°48'1010.1 130 / 221011.2 5.4 3.6-0.0 4.4
2017-Dec-04 05:00N 47°24' W 089°00'11212.1 130 / 181012.210.8 3.9 0.6 4.4
2017-Dec-03 19:44N 46°55' W 091°40'311.9
2017-Dec-03 19:30N 46°54' W 091°43'611.9
2017-Dec-03 19:00N 46°52' W 091°51'611.8
2017-Dec-03 18:30N 46°49' W 091°59'510.0
2017-Dec-03 18:00N 46°47' W 092°05'2 3.8
2017-Dec-03 17:30N 46°45' W 092°06'1 1.4
2017-Dec-03 17:00N 46°45' W 092°07'0 0.0
2017-Dec-03 16:30N 46°45' W 092°07'0 0.0
2017-Dec-03 16:00N 46°45' W 092°07'0 0.0
2017-Dec-03 15:30N 46°45' W 092°07'0 0.0
2017-Dec-03 15:00N 46°45' W 092°07'0 0.0
2017-Dec-03 14:30N 46°45' W 092°07'0 0.0
2017-Dec-03 14:00N 46°45' W 092°07'0 0.0
2017-Dec-03 13:30N 46°45' W 092°07'0 0.0
2017-Dec-03 13:00N 46°45' W 092°07'0 0.0
2017-Dec-03 12:30N 46°45' W 092°07'0 0.0
2017-Dec-03 12:00N 46°45' W 092°07'0 0.0
2017-Dec-03 11:30N 46°45' W 092°07'0 0.0
2017-Dec-03 11:00N 46°45' W 092°07'0 0.0
2017-Dec-03 10:30N 46°45' W 092°07'0 0.0
2017-Dec-03 10:00N 46°45' W 092°07'0 0.0
2017-Dec-03 09:30N 46°45' W 092°07'0 0.0
2017-Dec-03 09:00N 46°45' W 092°07'0 0.0
2017-Dec-03 08:30N 46°45' W 092°07'0 0.0
2017-Dec-03 08:00N 46°45' W 092°07'0 0.0
2017-Dec-03 07:30N 46°45' W 092°07'0 0.0
2017-Dec-03 07:00N 46°45' W 092°07'0 0.0
2017-Dec-03 06:30N 46°45' W 092°07'0 0.0
2017-Dec-03 06:00N 46°45' W 092°07'0 0.0
2017-Dec-03 05:30N 46°45' W 092°07'0 0.0
2017-Dec-03 05:00N 46°45' W 092°07'0 0.0
2017-Dec-03 04:30N 46°45' W 092°07'0 0.4
2017-Dec-03 04:00N 46°45' W 092°07'0 0.1
2017-Dec-03 03:30N 46°45' W 092°07'1 1.6
2017-Dec-03 03:00N 46°45' W 092°06'0 0.9
2017-Dec-03 02:30N 46°45' W 092°06'2 3.1
2017-Dec-03 02:00N 46°47' W 092°06'4 7.7
2017-Dec-03 01:30N 46°48' W 092°01'3 5.7
2017-Dec-03 01:00N 46°49' W 091°57'1 2.3
2017-Dec-03 00:30N 46°50' W 091°55'0 0.6
2017-Dec-03 00:00N 46°50' W 091°55'1 3.0
2017-Dec-02 23:30N 46°49' W 091°57'1 1.6
2017-Dec-02 23:00N 46°49' W 091°58'1 2.4
2017-Dec-02 22:30N 46°49' W 091°57'2 3.0
2017-Dec-02 22:00N 46°50' W 091°55'2 3.4
2017-Dec-02 21:30N 46°51' W 091°52'2 3.4
2017-Dec-02 21:00N 46°51' W 091°50'1 2.7
2017-Dec-02 20:30N 46°52' W 091°48'1 2.4
2017-Dec-02 20:00N 46°52' W 091°47'1 2.2
2017-Dec-02 19:30N 46°53' W 091°45'1 2.4
2017-Dec-02 19:00N 46°53' W 091°44'4 8.5
2017-Dec-02 18:30N 46°55' W 091°38'611.2
2017-Dec-02 18:00N 46°57' W 091°30'3403.4
2017-Dec-02 18:00N 46°54' W 091°30'12012.0 210 / 17402.110.8 2.7-1.0 4.9
2017-Dec-02 08:00N 47°30' W 088°42'3612.2 180 / 12 3.3
2017-Dec-02 05:00N 47°30' W 087°48'19910.0 210 / 171015.6 5.4 2.3-1.9 3.8
2017-Dec-01 09:11N 45°44' W 083°43'312.2
2017-Dec-01 08:55N 45°42' W 083°41'512.1
2017-Dec-01 08:30N 45°38' W 083°36'  
Track history (hours):
 
Tides and Currents Weather Stations Pressure Air Temp Water Temp Dewpoint Dewpoint Depression Visibility Wind Speed Wind Dir Waves Ship Positions

Walter J Mccarthy Jr

Owner: ARMSTRONG STEAMSHIP CO, WILLIAMSVILLE, NY. More information available from US FCC via Universal Licensing System and Coast Guard Vessel Documentation Center.

Last reported at 2017-Dec-11 08:10 UTC. Time now 2017-Dec-12 14:22 UTC.
Position N 45°44' W 083°43'.

Length 304 m; draft 8.5 m.

Type: Cargo ship. MMSI: 366906610.

Date/timePositionNaut miles runAvg speedWind from/ knotsBaromVisibWave heightAir tempDewpointWater temp
2017-Dec-11 08:10N 45°44' W 083°43'212.7
2017-Dec-11 08:00N 45°42' W 083°41'612.5
2017-Dec-11 07:30N 45°37' W 083°36'612.2
2017-Dec-11 07:00N 45°32' W 083°31'612.0
2017-Dec-11 06:30N 45°27' W 083°26'5612.3
2017-Dec-11 02:00N 44°36' W 082°54'169 3.4 320 / 251015.2 -4.4
2017-Dec-09 01:00N 41°48' W 083°12'0 0.0 210 / 181015.2 -1.1
2017-Dec-08 14:00N 41°48' W 083°12'0 0.0 230 / 221017.2 -5.5
2017-Dec-08 03:00N 41°48' W 083°12'186 5.5 240 / 23507.1 -4.4
2017-Dec-06 17:00N 44°54' W 083°06'74 6.7 240 / 291006.110.8 -5.3-12.9 3.3
2017-Dec-06 06:00N 46°00' W 083°54'0 0.0 260 / 241004.4 2.2 -1.2-13.0 4.4
2017-Dec-05 20:00N 46°00' W 083°54'0 0.0 240 / 39999.0 5.4 0.9-4.8 3.8
2017-Dec-05 17:00N 46°00' W 083°54'96 4.3 230 / 34998.3 5.4 -0.0-5.2 3.8
2017-Dec-04 19:00N 46°48' W 085°54'2110.3 140 / 171002.4 2.2 7.3 5.3 4.4
2017-Dec-04 17:00N 46°48' W 086°24'95 9.5 150 / 241003.1 2.2 5.4 4.2 4.4
2017-Dec-04 07:00N 47°30' W 088°30'1212.2 140 / 141010.8 5.4 3.0-0.0 4.4
2017-Dec-04 06:00N 47°30' W 088°48'1010.1 130 / 221011.2 5.4 3.6-0.0 4.4
2017-Dec-04 05:00N 47°24' W 089°00'11212.1 130 / 181012.210.8 3.9 0.6 4.4
2017-Dec-03 19:44N 46°55' W 091°40'311.9
2017-Dec-03 19:30N 46°54' W 091°43'611.9
2017-Dec-03 19:00N 46°52' W 091°51'611.8
2017-Dec-03 18:30N 46°49' W 091°59'510.0
2017-Dec-03 18:00N 46°47' W 092°05'2 3.8
2017-Dec-03 17:30N 46°45' W 092°06'1 1.4
2017-Dec-03 17:00N 46°45' W 092°07'0 0.0
2017-Dec-03 16:30N 46°45' W 092°07'0 0.0
2017-Dec-03 16:00N 46°45' W 092°07'0 0.0
2017-Dec-03 15:30N 46°45' W 092°07'0 0.0
2017-Dec-03 15:00N 46°45' W 092°07'0 0.0
2017-Dec-03 14:30N 46°45' W 092°07'0 0.0
2017-Dec-03 14:00N 46°45' W 092°07'0 0.0
2017-Dec-03 13:30N 46°45' W 092°07'0 0.0
2017-Dec-03 13:00N 46°45' W 092°07'0 0.0
2017-Dec-03 12:30N 46°45' W 092°07'0 0.0
2017-Dec-03 12:00N 46°45' W 092°07'0 0.0
2017-Dec-03 11:30N 46°45' W 092°07'0 0.0
2017-Dec-03 11:00N 46°45' W 092°07'0 0.0
2017-Dec-03 10:30N 46°45' W 092°07'0 0.0
2017-Dec-03 10:00N 46°45' W 092°07'0 0.0
2017-Dec-03 09:30N 46°45' W 092°07'0 0.0
2017-Dec-03 09:00N 46°45' W 092°07'0 0.0
2017-Dec-03 08:30N 46°45' W 092°07'0 0.0
2017-Dec-03 08:00N 46°45' W 092°07'0 0.0
2017-Dec-03 07:30N 46°45' W 092°07'0 0.0
2017-Dec-03 07:00N 46°45' W 092°07'0 0.0
2017-Dec-03 06:30N 46°45' W 092°07'0 0.0
2017-Dec-03 06:00N 46°45' W 092°07'0 0.0
2017-Dec-03 05:30N 46°45' W 092°07'0 0.0
2017-Dec-03 05:00N 46°45' W 092°07'0 0.0
2017-Dec-03 04:30N 46°45' W 092°07'0 0.4
2017-Dec-03 04:00N 46°45' W 092°07'0 0.1
2017-Dec-03 03:30N 46°45' W 092°07'1 1.6
2017-Dec-03 03:00N 46°45' W 092°06'0 0.9
2017-Dec-03 02:30N 46°45' W 092°06'2 3.1
2017-Dec-03 02:00N 46°47' W 092°06'4 7.7
2017-Dec-03 01:30N 46°48' W 092°01'3 5.7
2017-Dec-03 01:00N 46°49' W 091°57'1 2.3
2017-Dec-03 00:30N 46°50' W 091°55'0 0.6
2017-Dec-03 00:00N 46°50' W 091°55'1 3.0
2017-Dec-02 23:30N 46°49' W 091°57'1 1.6
2017-Dec-02 23:00N 46°49' W 091°58'1 2.4
2017-Dec-02 22:30N 46°49' W 091°57'2 3.0
2017-Dec-02 22:00N 46°50' W 091°55'2 3.4
2017-Dec-02 21:30N 46°51' W 091°52'2 3.4
2017-Dec-02 21:00N 46°51' W 091°50'1 2.7
2017-Dec-02 20:30N 46°52' W 091°48'1 2.4
2017-Dec-02 20:00N 46°52' W 091°47'1 2.2
2017-Dec-02 19:30N 46°53' W 091°45'1 2.4
2017-Dec-02 19:00N 46°53' W 091°44'4 8.5
2017-Dec-02 18:30N 46°55' W 091°38'611.2
2017-Dec-02 18:00N 46°57' W 091°30'3403.4
2017-Dec-02 18:00N 46°54' W 091°30'12012.0 210 / 17402.110.8 2.7-1.0 4.9
2017-Dec-02 08:00N 47°30' W 088°42'3612.2 180 / 12 3.3
2017-Dec-02 05:00N 47°30' W 087°48'19910.0 210 / 171015.6 5.4 2.3-1.9 3.8
2017-Dec-01 09:11N 45°44' W 083°43'312.2
2017-Dec-01 08:55N 45°42' W 083°41'512.1
2017-Dec-01 08:30N 45°38' W 083°36'  

Dump ship's entire track history